createdAt,value
2018-02-11T19:25:25.354Z,45.73
2018-02-11T19:26:25.327Z,46.09
2018-02-11T19:28:43.164Z,46.28
2018-02-11T19:29:43.138Z,46.38
2018-02-11T19:31:36.543Z,46.67
2018-02-11T19:32:36.519Z,46.86
2018-02-11T19:34:29.974Z,46.67
2018-02-11T19:35:29.900Z,46.48
2018-02-11T19:37:24.325Z,46.28
2018-02-11T19:38:24.349Z,46.38
2018-02-11T19:40:22.425Z,46.59
2018-02-11T19:41:22.399Z,46.19
2018-02-11T19:44:33.690Z,46.38
2018-02-11T20:10:37.004Z,34.36
2018-02-11T20:11:36.969Z,37.23
2018-02-11T20:13:30.298Z,43.90
2018-02-11T20:14:30.265Z,49.13
2018-02-11T20:16:23.628Z,58.36
2018-02-11T20:17:23.581Z,62.37
2018-02-11T20:19:16.986Z,66.89
2018-02-11T20:20:17.213Z,68.31
2018-02-11T20:22:10.219Z,71.06
2018-02-11T20:23:10.197Z,72.34
2018-02-11T20:25:03.568Z,74.15
2018-02-11T20:26:03.498Z,74.52
2018-02-11T20:27:56.813Z,75.19
2018-02-11T20:28:56.829Z,75.85
2018-02-11T20:30:50.322Z,76.29
2018-02-11T20:31:50.278Z,76.57
2018-02-11T20:33:44.572Z,76.57
2018-02-11T20:34:44.557Z,76.76
2018-02-11T20:36:37.915Z,77.23
2018-02-11T20:37:37.834Z,77.70
2018-02-11T20:39:31.163Z,78.08
2018-02-11T20:40:31.124Z,77.89
2018-02-11T20:42:24.496Z,78.08
2018-02-11T20:43:24.454Z,78.46
2018-02-11T20:45:18.809Z,78.37
2018-02-11T20:46:18.717Z,78.65
2018-02-11T20:48:12.127Z,79.03
2018-02-11T20:49:12.006Z,78.85
2018-02-11T20:51:05.444Z,79.22
2018-02-11T20:52:05.302Z,79.50
2018-02-11T20:53:58.682Z,79.60
2018-02-11T20:54:58.600Z,79.79
2018-02-11T20:56:51.990Z,80.07
2018-02-11T20:57:51.900Z,80.36
2018-02-11T20:59:45.233Z,79.88
2018-02-11T21:00:45.191Z,80.45
2018-02-11T21:02:39.557Z,80.26
2018-02-11T21:03:39.479Z,80.64
2018-02-11T21:05:32.868Z,80.83
2018-02-11T21:06:32.784Z,81.21
2018-02-11T21:08:27.153Z,82.06
2018-02-11T21:09:27.080Z,82.91
2018-02-11T21:11:22.033Z,83.01
2018-02-11T21:12:21.919Z,83.58
2018-02-11T21:14:16.266Z,83.95
2018-02-11T21:15:16.165Z,84.23
2018-02-11T21:17:09.536Z,84.42
2018-02-11T21:18:09.493Z,84.52
2018-02-11T21:20:03.795Z,84.81
2018-02-11T21:21:03.760Z,85.19
2018-02-11T21:22:58.243Z,84.52
2018-02-11T21:23:58.079Z,84.90
2018-02-11T21:25:51.440Z,85.19
2018-02-11T21:26:51.452Z,84.61
2018-02-11T21:27:51.480Z,85.19
2018-02-11T21:28:51.380Z,85.57
2018-02-11T21:29:51.301Z,85.28
2018-02-11T21:30:51.328Z,86.22
2018-02-11T21:31:51.246Z,86.41
2018-02-11T21:32:51.217Z,86.22
2018-02-11T21:33:51.193Z,86.70
2018-02-11T21:34:51.163Z,86.70
2018-02-11T21:35:51.201Z,87.08
2018-02-11T21:36:51.113Z,87.17
2018-02-11T21:37:51.079Z,87.55
2018-02-11T21:38:51.070Z,87.55
2018-02-11T21:39:51.032Z,87.65
2018-02-11T21:40:51.004Z,87.36
2018-02-11T21:41:50.987Z,88.12
2018-02-11T21:42:50.943Z,87.84
2018-02-11T21:43:50.994Z,87.84
2018-02-11T21:44:50.909Z,88.40
2018-02-11T21:45:50.857Z,88.21
2018-02-11T21:46:50.830Z,88.36
2018-02-11T21:47:50.849Z,88.31
2018-02-11T21:48:51.590Z,88.78
2018-02-11T21:49:50.934Z,89.02
2018-02-11T21:50:50.913Z,88.64
2018-02-11T21:51:50.727Z,88.78
2018-02-11T21:52:50.711Z,89.02
2018-02-11T21:53:51.530Z,88.83
2018-02-11T21:54:50.653Z,88.68
2018-02-11T21:55:50.625Z,88.78
2018-02-11T21:56:50.588Z,88.74
2018-02-11T21:57:50.535Z,88.74
2018-02-11T21:58:50.566Z,89.50
2018-02-11T21:59:50.526Z,89.21
2018-02-11T22:00:50.622Z,89.21
2018-02-11T22:01:50.793Z,89.21
2018-02-11T22:02:50.423Z,89.50
2018-02-11T22:03:50.441Z,89.21
2018-02-11T22:04:50.786Z,89.40
2018-02-11T22:05:50.489Z,89.50
2018-02-11T22:06:50.292Z,89.02
2018-02-11T22:07:50.354Z,89.59
2018-02-11T22:08:50.247Z,89.78
2018-02-11T22:09:50.237Z,89.97
2018-02-11T22:10:50.215Z,90.44
2018-02-11T22:11:50.200Z,90.44
2018-02-11T22:12:50.141Z,90.34
2018-02-11T22:13:50.648Z,90.53
2018-02-11T22:14:50.099Z,90.63
2018-02-11T22:15:50.068Z,90.91
2018-02-11T22:16:50.026Z,91.10
2018-02-11T22:17:50.028Z,90.91
2018-02-11T22:18:50.000Z,90.72
2018-02-11T22:19:49.937Z,90.82
2018-02-11T22:20:49.937Z,90.91
2018-02-11T22:21:51.050Z,90.82
2018-02-11T22:22:50.570Z,90.91
2018-02-11T22:23:49.831Z,90.72
2018-02-11T22:24:49.875Z,90.53
2018-02-11T22:25:49.757Z,90.63
2018-02-11T22:26:49.748Z,90.72
2018-02-11T22:27:49.763Z,90.72
2018-02-11T22:28:49.760Z,90.72
2018-02-11T22:29:49.643Z,91.01
2018-02-11T22:30:49.610Z,90.82
2018-02-11T22:31:49.628Z,90.72
2018-02-11T22:32:49.575Z,90.82
2018-02-11T22:33:50.321Z,91.67
2018-02-11T22:34:49.555Z,90.72
2018-02-11T22:35:49.550Z,91.67
2018-02-11T22:36:50.049Z,91.58
2018-02-11T22:37:49.445Z,91.67
2018-02-11T22:38:50.060Z,91.58
2018-02-11T22:39:49.737Z,91.67
2018-02-11T22:40:49.363Z,91.77
2018-02-11T22:41:51.031Z,91.96
2018-02-11T22:42:49.299Z,92.05
2018-02-11T22:43:49.339Z,91.77
2018-02-11T22:44:49.246Z,91.96
2018-02-11T22:45:49.208Z,92.05
2018-02-11T22:46:49.178Z,91.29
2018-02-11T22:47:49.176Z,92.05
2018-02-11T22:48:49.140Z,91.77
2018-02-11T22:49:50.361Z,91.96
2018-02-11T22:50:49.069Z,91.86
2018-02-11T22:51:50.056Z,91.86
2018-02-11T22:52:49.070Z,92.33
2018-02-11T22:53:49.403Z,92.43
2018-02-11T22:54:49.025Z,91.77
2018-02-11T22:55:48.999Z,91.86
2018-02-11T22:56:49.536Z,91.29
2018-02-11T22:57:48.902Z,91.48
2018-02-11T22:58:49.500Z,92.24
2018-02-11T22:59:48.850Z,91.96
2018-02-11T23:00:49.518Z,92.24
2018-02-11T23:01:48.781Z,92.61
2018-02-11T23:02:49.409Z,92.14
2018-02-11T23:03:48.740Z,92.90
2018-02-11T23:04:49.524Z,92.80
2018-02-11T23:05:48.717Z,93.09
2018-02-11T23:06:48.788Z,92.71
2018-02-11T23:07:48.693Z,92.90
2018-02-11T23:08:48.621Z,92.90
2018-02-11T23:09:48.538Z,92.90
2018-02-11T23:10:48.505Z,93.18
2018-02-11T23:11:48.488Z,92.90
2018-02-11T23:12:48.447Z,93.09
2018-02-11T23:13:49.013Z,92.33
2018-02-11T23:14:48.413Z,92.33
2018-02-11T23:15:48.744Z,93.18
2018-02-11T23:16:48.363Z,93.18
2018-02-11T23:17:48.305Z,93.09
2018-02-11T23:18:48.320Z,92.99
2018-02-11T23:19:48.260Z,92.33
2018-02-11T23:20:50.012Z,92.24
2018-02-11T23:21:48.200Z,92.05
2018-02-11T23:22:48.181Z,91.48
2018-02-11T23:23:48.164Z,91.58
2018-02-11T23:24:48.130Z,91.48
2018-02-11T23:25:48.101Z,91.10
2018-02-11T23:26:48.077Z,91.29
2018-02-11T23:27:48.042Z,91.29
2018-02-11T23:28:48.007Z,91.10
2018-02-11T23:29:47.982Z,91.20
2018-02-11T23:30:47.948Z,91.01
2018-02-11T23:31:47.924Z,90.72
2018-02-11T23:32:48.533Z,90.82
2018-02-11T23:33:47.836Z,91.01
2018-02-11T23:34:47.839Z,90.63
2018-02-11T23:35:47.815Z,90.91
2018-02-11T23:36:47.765Z,89.97
2018-02-11T23:37:47.754Z,91.10
2018-02-11T23:38:47.709Z,91.01
2018-02-11T23:39:47.659Z,90.91
2018-02-11T23:40:47.649Z,90.82
2018-02-11T23:41:47.625Z,90.91
2018-02-11T23:42:47.577Z,90.63
2018-02-11T23:43:47.546Z,90.63
2018-02-11T23:44:47.559Z,90.82
2018-02-11T23:45:47.735Z,90.91
2018-02-11T23:46:47.458Z,90.25
2018-02-11T23:47:47.459Z,90.34
2018-02-11T23:48:47.425Z,90.25
2018-02-11T23:49:47.388Z,90.25
2018-02-11T23:50:47.424Z,90.34
2018-02-11T23:51:47.331Z,90.53
2018-02-11T23:52:47.307Z,90.34
2018-02-11T23:53:47.303Z,90.16
2018-02-11T23:54:47.254Z,91.01
2018-02-11T23:55:47.205Z,90.53
2018-02-11T23:56:47.206Z,90.72
2018-02-11T23:57:47.145Z,90.63
2018-02-11T23:58:47.117Z,90.82
2018-02-11T23:59:47.137Z,90.82
